Terminal Aerodrome Forecast
Issued by NWS

Home | Current Version | Previous Version | Graphics & Text | Print | Product List | Glossary Off
Versions: 1 2 3 4 5 6 7 8 9 10 11 12 13 14 15 16 17 18 19 20 21

000
FTUS43 KBIS 231508 AAB
TAFJMS
TAF AMD
KJMS 231508Z 2315/2412 36015G23KT P6SM VCSH SCT015 BKN020
      TEMPO 2315/2317 BKN015
     FM231700 36014KT P6SM OVC035
     FM240100 02008KT P6SM BKN100=

USA.gov is the U.S. government's official web portal to all federal, state and local government web resources and services.